createdAt,value
2022-08-30T00:02:13.508Z,25.35
2022-08-30T00:04:40.982Z,25.22
2022-08-30T00:07:08.165Z,25.05
2022-08-30T00:09:35.385Z,25.11
2022-08-30T00:12:04.442Z,25.18
2022-08-30T00:14:31.631Z,25.15
2022-08-30T00:16:58.765Z,24.99
2022-08-30T00:19:26.294Z,25.13
2022-08-30T00:21:53.511Z,25.03
2022-08-30T00:24:20.682Z,25.14
2022-08-30T00:26:48.407Z,25.01
2022-08-30T00:29:15.571Z,25.05
2022-08-30T00:31:42.747Z,24.89
2022-08-30T00:34:10.155Z,25.04
2022-08-30T00:36:37.577Z,25.03
2022-08-30T00:39:05.491Z,24.91
2022-08-30T00:41:34.389Z,24.93
2022-08-30T00:44:01.767Z,25.01
2022-08-30T00:46:29.203Z,24.96
2022-08-30T00:48:56.650Z,24.99
2022-08-30T00:51:24.143Z,24.94
2022-08-30T00:53:54.877Z,25.00
2022-08-30T00:56:22.904Z,24.96
2022-08-30T00:58:50.978Z,24.96
2022-08-30T01:01:18.230Z,24.88
2022-08-30T01:03:45.854Z,24.90
2022-08-30T01:06:15.535Z,24.84
2022-08-30T01:08:43.169Z,24.92
2022-08-30T01:11:12.019Z,24.87
2022-08-30T01:13:39.177Z,24.92
2022-08-30T01:16:06.462Z,25.02
2022-08-30T01:18:35.499Z,25.05
2022-08-30T01:21:29.206Z,24.93
2022-08-30T01:23:58.774Z,25.05
2022-08-30T01:26:26.456Z,24.97
2022-08-30T01:28:55.603Z,24.92
2022-08-30T01:31:23.282Z,24.87
2022-08-30T01:33:51.093Z,24.88
2022-08-30T01:36:18.640Z,24.78
2022-08-30T01:38:47.795Z,24.80
2022-08-30T01:41:19.635Z,24.81
2022-08-30T01:43:47.287Z,24.83
2022-08-30T01:46:15.266Z,24.76
2022-08-30T01:48:42.716Z,24.79
2022-08-30T01:51:22.647Z,24.79
2022-08-30T01:53:51.105Z,24.76
2022-08-30T01:56:18.507Z,24.71
2022-08-30T01:58:46.028Z,24.47
2022-08-30T02:01:14.007Z,24.58
2022-08-30T02:03:43.157Z,24.58
2022-08-30T02:06:11.676Z,24.63
2022-08-30T02:08:40.275Z,24.47
2022-08-30T02:11:08.316Z,24.55
2022-08-30T02:13:37.656Z,24.55
2022-08-30T02:16:06.035Z,24.48
2022-08-30T02:18:34.991Z,24.47
2022-08-30T02:21:02.205Z,24.51
2022-08-30T02:23:29.374Z,24.53
2022-08-30T02:25:56.789Z,24.46
2022-08-30T02:28:25.735Z,24.39
2022-08-30T02:30:53.098Z,24.26
2022-08-30T02:33:20.643Z,24.26
2022-08-30T02:35:47.818Z,24.35
2022-08-30T02:38:14.962Z,24.29
2022-08-30T02:40:42.422Z,24.27
2022-08-30T02:43:09.694Z,24.35
2022-08-30T02:45:37.188Z,24.27
2022-08-30T02:48:04.717Z,24.30
2022-08-30T02:50:32.854Z,24.22
2022-08-30T02:53:00.030Z,24.22
2022-08-30T02:55:27.866Z,24.21
2022-08-30T02:57:55.043Z,24.08
2022-08-30T03:00:22.227Z,24.29
2022-08-30T03:02:49.766Z,24.21
2022-08-30T03:05:17.522Z,24.04
2022-08-30T03:07:45.809Z,24.22
2022-08-30T03:10:13.970Z,24.13
2022-08-30T03:12:41.729Z,24.11
2022-08-30T03:15:10.064Z,24.03
2022-08-30T03:17:37.514Z,24.22
2022-08-30T03:20:05.398Z,24.18
2022-08-30T03:22:32.541Z,24.21
2022-08-30T03:25:01.452Z,23.89
2022-08-30T03:27:28.915Z,23.98
2022-08-30T03:29:56.354Z,23.86
2022-08-30T03:32:24.147Z,23.90
2022-08-30T03:34:51.303Z,23.80
2022-08-30T03:37:18.487Z,23.89
2022-08-30T03:39:46.222Z,23.73
2022-08-30T03:42:13.433Z,23.83
2022-08-30T03:44:40.672Z,23.81
2022-08-30T03:47:08.924Z,23.78
2022-08-30T03:49:36.198Z,23.89
2022-08-30T03:52:03.864Z,23.74
2022-08-30T03:54:31.324Z,23.87
2022-08-30T03:56:58.645Z,23.84
2022-08-30T03:59:25.810Z,23.71
2022-08-30T04:01:53.316Z,23.91
2022-08-30T04:04:21.280Z,23.87
2022-08-30T04:06:48.935Z,24.02
2022-08-30T04:09:16.283Z,23.92
2022-08-30T04:11:43.734Z,23.87
2022-08-30T04:14:10.889Z,23.85
2022-08-30T04:16:38.125Z,23.88
2022-08-30T04:19:05.583Z,23.79
2022-08-30T04:21:32.800Z,23.77
2022-08-30T04:24:02.301Z,23.85
2022-08-30T04:26:29.788Z,23.72
2022-08-30T04:28:56.967Z,23.79
2022-08-30T04:31:24.286Z,23.80
2022-08-30T04:33:51.755Z,24.00
2022-08-30T04:36:19.069Z,23.99
2022-08-30T04:38:46.908Z,23.96
2022-08-30T04:41:16.477Z,23.89
2022-08-30T04:43:44.685Z,23.94
2022-08-30T04:46:13.884Z,23.82
2022-08-30T04:48:41.899Z,23.86
2022-08-30T04:51:10.253Z,23.99
2022-08-30T04:53:37.413Z,23.99
2022-08-30T04:56:11.777Z,24.00
2022-08-30T04:58:38.932Z,24.08
2022-08-30T05:01:11.301Z,24.06
2022-08-30T05:03:39.412Z,24.03
2022-08-30T05:06:08.001Z,24.19
2022-08-30T05:08:35.182Z,24.22
2022-08-30T05:11:03.859Z,24.23
2022-08-30T05:13:35.547Z,24.30
2022-08-30T05:16:06.089Z,24.29
2022-08-30T05:18:34.066Z,24.43
2022-08-30T05:21:17.622Z,24.41
2022-08-30T05:23:45.291Z,24.34
2022-08-30T05:26:13.958Z,24.40
2022-08-30T05:28:41.165Z,24.48
2022-08-30T05:31:18.879Z,24.51
2022-08-30T05:33:46.465Z,24.58
2022-08-30T05:36:14.699Z,24.55
2022-08-30T05:38:42.335Z,24.66
2022-08-30T05:41:11.007Z,24.66
2022-08-30T05:43:38.893Z,24.89
2022-08-30T05:46:10.685Z,24.91
2022-08-30T05:48:38.295Z,24.75
2022-08-30T05:51:11.415Z,24.68
2022-08-30T05:53:39.408Z,24.95
2022-08-30T05:56:08.745Z,24.70
2022-08-30T05:58:36.530Z,25.06
2022-08-30T06:01:03.923Z,25.11
2022-08-30T06:03:32.971Z,25.12
2022-08-30T06:06:00.539Z,25.25
2022-08-30T06:08:28.215Z,25.42
2022-08-30T06:10:55.706Z,25.47
2022-08-30T06:13:23.287Z,25.48
2022-08-30T06:15:53.080Z,25.57
2022-08-30T06:18:21.637Z,25.59
2022-08-30T06:20:55.976Z,25.58
2022-08-30T06:23:23.767Z,25.85
2022-08-30T06:25:51.710Z,25.89
2022-08-30T06:28:19.336Z,25.98
2022-08-30T06:30:47.445Z,26.10
2022-08-30T06:33:14.615Z,26.21
2022-08-30T06:35:58.482Z,26.12
2022-08-30T06:38:27.915Z,26.28
2022-08-30T06:40:55.293Z,26.18
2022-08-30T06:43:22.636Z,26.30
2022-08-30T06:45:51.355Z,26.24
2022-08-30T06:48:18.789Z,26.34
2022-08-30T06:50:46.094Z,26.54
2022-08-30T06:53:13.977Z,26.85
2022-08-30T06:55:42.039Z,27.21
2022-08-30T06:58:09.857Z,27.28
2022-08-30T07:00:37.400Z,27.20
2022-08-30T07:03:05.301Z,27.39
2022-08-30T07:05:32.682Z,27.49
2022-08-30T07:08:00.114Z,27.63
2022-08-30T07:10:27.335Z,27.68
2022-08-30T07:12:54.504Z,28.18
2022-08-30T07:15:23.031Z,28.56
2022-08-30T07:18:09.588Z,28.63
2022-08-30T07:20:40.110Z,28.58
2022-08-30T07:23:08.855Z,28.71
2022-08-30T07:25:39.488Z,28.44
2022-08-30T07:28:08.072Z,28.55
2022-08-30T07:30:35.484Z,28.59
2022-08-30T07:33:02.866Z,28.52
2022-08-30T07:35:31.485Z,28.43
2022-08-30T07:37:58.896Z,28.54
2022-08-30T07:40:26.430Z,28.46
2022-08-30T07:42:53.980Z,28.39
2022-08-30T07:45:21.336Z,28.39
2022-08-30T07:47:48.535Z,28.37
2022-08-30T07:50:16.055Z,28.52
2022-08-30T07:52:43.242Z,28.44
2022-08-30T07:55:10.405Z,28.46
2022-08-30T07:57:37.881Z,28.62
2022-08-30T08:00:05.678Z,28.43
2022-08-30T08:02:40.815Z,28.62
2022-08-30T08:05:10.310Z,28.62
2022-08-30T08:07:41.203Z,28.70
2022-08-30T08:10:09.182Z,28.63
2022-08-30T08:12:36.592Z,28.79
2022-08-30T08:15:06.777Z,28.83
2022-08-30T08:17:36.457Z,28.84
2022-08-30T08:20:04.200Z,28.85
2022-08-30T08:22:31.389Z,28.61
2022-08-30T08:24:58.885Z,28.80
2022-08-30T08:27:26.100Z,28.67
2022-08-30T08:29:53.301Z,28.81
2022-08-30T08:32:20.726Z,28.94
2022-08-30T08:34:47.893Z,28.85
2022-08-30T08:37:15.100Z,28.49
2022-08-30T08:39:42.597Z,28.70
2022-08-30T08:42:15.889Z,29.14
2022-08-30T08:44:58.464Z,29.32
2022-08-30T08:47:28.188Z,29.26
2022-08-30T08:49:56.453Z,29.63
2022-08-30T08:52:49.719Z,30.12
2022-08-30T08:55:19.258Z,30.09
2022-08-30T08:57:46.875Z,30.01
2022-08-30T09:00:15.240Z,30.52
2022-08-30T09:02:46.924Z,30.66
2022-08-30T09:05:18.776Z,30.50
2022-08-30T09:07:50.259Z,30.42
2022-08-30T09:10:22.968Z,30.68
2022-08-30T09:13:00.029Z,31.08
2022-08-30T09:15:30.139Z,31.41
2022-08-30T09:18:02.598Z,31.12
2022-08-30T09:20:33.677Z,30.77
2022-08-30T09:23:12.119Z,30.44
2022-08-30T09:25:41.775Z,30.40
2022-08-30T09:28:10.975Z,30.28
2022-08-30T09:30:38.403Z,30.07
2022-08-30T09:33:07.704Z,29.74
2022-08-30T09:35:36.798Z,30.13
2022-08-30T09:38:11.641Z,30.57
2022-08-30T09:40:42.190Z,30.52
2022-08-30T09:43:12.014Z,31.11
2022-08-30T09:45:42.952Z,31.14
2022-08-30T09:48:28.878Z,31.14
2022-08-30T09:51:17.489Z,31.44
2022-08-30T09:54:19.225Z,31.95
2022-08-30T09:56:46.325Z,31.36
2022-08-30T09:59:34.366Z,30.10
2022-08-30T10:02:05.407Z,29.82
2022-08-30T10:04:40.550Z,30.23
2022-08-30T10:07:11.116Z,30.15
2022-08-30T10:09:42.083Z,30.68
2022-08-30T10:12:15.422Z,30.66
2022-08-30T10:14:56.832Z,30.66
2022-08-30T10:17:41.343Z,30.04
2022-08-30T10:20:21.699Z,30.21
2022-08-30T10:23:00.913Z,30.81
2022-08-30T10:25:28.273Z,30.93
2022-08-30T10:27:58.410Z,30.57
2022-08-30T10:30:25.592Z,30.97
2022-08-30T10:33:05.293Z,31.44
2022-08-30T10:35:38.681Z,31.39
2022-08-30T10:38:08.738Z,31.49
2022-08-30T10:40:55.325Z,31.53
2022-08-30T10:43:23.150Z,30.82
2022-08-30T10:45:51.327Z,31.38
2022-08-30T10:48:29.786Z,30.70
2022-08-30T10:50:59.237Z,31.01
2022-08-30T10:53:33.154Z,31.38
2022-08-30T10:56:00.511Z,31.59
2022-08-30T10:58:28.322Z,31.87
2022-08-30T11:01:04.651Z,32.26
2022-08-30T11:03:51.895Z,31.86
2022-08-30T11:06:27.384Z,32.28
2022-08-30T11:09:01.215Z,32.42
2022-08-30T11:11:47.059Z,32.01
2022-08-30T11:14:16.820Z,31.53
2022-08-30T11:16:44.820Z,31.49
2022-08-30T11:19:13.863Z,32.15
2022-08-30T11:21:41.986Z,31.87
2022-08-30T11:24:11.717Z,31.82
2022-08-30T11:26:45.263Z,32.56
2022-08-30T11:29:31.716Z,32.52
2022-08-30T11:32:00.095Z,32.84
2022-08-30T11:34:48.415Z,32.73
2022-08-30T11:37:33.869Z,31.77
2022-08-30T11:40:04.192Z,31.77
2022-08-30T11:42:50.658Z,32.05
2022-08-30T11:45:26.815Z,32.45
2022-08-30T11:47:56.527Z,33.10
2022-08-30T11:50:29.326Z,32.50
2022-08-30T11:52:59.268Z,32.62
2022-08-30T11:55:45.871Z,32.60
2022-08-30T11:58:27.976Z,32.03
2022-08-30T12:01:50.665Z,31.75
2022-08-30T12:04:19.755Z,31.81
2022-08-30T12:06:47.003Z,32.12
2022-08-30T12:09:26.357Z,32.21
2022-08-30T12:12:10.507Z,32.24
2022-08-30T12:14:47.511Z,32.18
2022-08-30T12:17:36.889Z,31.82
2022-08-30T12:20:04.939Z,31.44
2022-08-30T12:22:37.838Z,31.81
2022-08-30T12:25:13.576Z,32.47
2022-08-30T12:27:41.045Z,32.64
2022-08-30T12:30:10.947Z,32.88
2022-08-30T12:32:47.498Z,32.69
2022-08-30T12:35:19.569Z,32.87
2022-08-30T12:37:55.556Z,33.17
2022-08-30T12:40:23.342Z,32.69
2022-08-30T12:42:51.279Z,32.96
2022-08-30T12:45:20.964Z,32.93
2022-08-30T12:47:48.638Z,32.49
2022-08-30T12:50:17.327Z,32.70
2022-08-30T12:52:48.591Z,32.69
2022-08-30T12:55:19.702Z,32.61
2022-08-30T12:57:59.824Z,32.89
2022-08-30T13:00:32.751Z,32.21
2022-08-30T13:03:02.264Z,32.50
2022-08-30T13:05:32.275Z,32.16
2022-08-30T13:08:11.743Z,32.09
2022-08-30T13:10:58.751Z,32.40
2022-08-30T13:13:29.309Z,32.72
2022-08-30T13:15:56.967Z,32.52
2022-08-30T13:18:30.068Z,32.93
2022-08-30T13:21:11.950Z,33.04
2022-08-30T13:23:39.855Z,33.14
2022-08-30T13:26:07.998Z,33.23
2022-08-30T13:28:47.953Z,32.73
2022-08-30T13:31:16.478Z,32.95
2022-08-30T13:33:46.496Z,32.74
2022-08-30T13:36:14.315Z,32.60
2022-08-30T13:38:41.909Z,32.27
2022-08-30T13:41:10.837Z,31.78
2022-08-30T13:46:28.134Z,32.53
2022-08-30T13:48:58.909Z,32.66
2022-08-30T13:51:27.077Z,32.78
2022-08-30T13:53:54.804Z,32.71
2022-08-30T13:56:24.747Z,32.41
2022-08-30T13:58:52.615Z,32.46
2022-08-30T14:01:20.128Z,32.54
2022-08-30T14:06:35.210Z,32.75
2022-08-30T14:09:05.058Z,32.54
2022-08-30T14:11:32.641Z,32.17
2022-08-30T14:14:26.635Z,32.60
2022-08-30T14:16:48.935Z,32.56
2022-08-30T14:19:17.218Z,32.75
2022-08-30T14:21:48.886Z,32.72
2022-08-30T14:24:20.131Z,32.78
2022-08-30T14:26:49.597Z,32.83
2022-08-30T14:29:21.418Z,32.96
2022-08-30T14:31:48.934Z,32.83
2022-08-30T14:34:16.669Z,32.93
2022-08-30T14:36:44.501Z,32.63
2022-08-30T14:39:14.572Z,32.39
2022-08-30T14:41:44.083Z,32.65
2022-08-30T14:44:12.410Z,32.65
2022-08-30T14:46:39.811Z,32.64
2022-08-30T14:49:10.253Z,32.75
2022-08-30T14:51:38.818Z,32.45
2022-08-30T14:54:06.082Z,32.41
2022-08-30T14:56:33.583Z,32.25
2022-08-30T14:59:03.027Z,32.11
2022-08-30T15:01:31.359Z,32.25
2022-08-30T15:03:59.488Z,32.41
2022-08-30T15:06:27.790Z,32.26
2022-08-30T15:08:55.383Z,32.18
2022-08-30T15:11:23.507Z,32.10
2022-08-30T15:13:52.909Z,32.05
2022-08-30T15:16:25.279Z,31.90
2022-08-30T15:18:52.918Z,31.88
2022-08-30T15:21:30.725Z,31.88
2022-08-30T15:23:58.525Z,31.58
2022-08-30T15:26:26.367Z,31.55
2022-08-30T15:28:54.935Z,31.54
2022-08-30T15:31:23.276Z,31.45
2022-08-30T15:33:50.514Z,31.52
2022-08-30T15:36:17.925Z,31.37
2022-08-30T15:38:45.604Z,31.29
2022-08-30T15:41:12.925Z,31.27
2022-08-30T15:43:41.441Z,31.23
2022-08-30T15:46:20.318Z,31.25
2022-08-30T15:48:47.679Z,31.19
2022-08-30T15:51:16.708Z,31.29
2022-08-30T15:53:44.479Z,31.31
2022-08-30T15:56:11.926Z,31.24
2022-08-30T15:58:39.834Z,31.16
2022-08-30T16:01:07.771Z,31.18
2022-08-30T16:03:35.725Z,31.13
2022-08-30T16:06:07.788Z,31.10
2022-08-30T16:08:35.287Z,31.04
2022-08-30T16:11:02.479Z,30.99
2022-08-30T16:13:29.639Z,31.00
2022-08-30T16:15:59.815Z,31.10
2022-08-30T16:18:27.069Z,30.93
2022-08-30T16:21:09.667Z,30.93
2022-08-30T16:23:37.843Z,31.01
2022-08-30T16:26:05.315Z,30.73
2022-08-30T16:28:32.863Z,30.78
2022-08-30T16:31:00.925Z,30.72
2022-08-30T16:33:33.293Z,30.72
2022-08-30T16:36:01.348Z,30.66
2022-08-30T16:38:28.625Z,30.70
2022-08-30T16:40:56.570Z,30.70
2022-08-30T16:43:25.322Z,30.58
2022-08-30T16:45:53.810Z,30.69
2022-08-30T16:48:21.251Z,30.65
2022-08-30T16:50:48.776Z,30.62
2022-08-30T16:53:16.142Z,30.49
2022-08-30T16:55:43.400Z,30.35
2022-08-30T16:58:13.840Z,30.35
2022-08-30T17:00:47.577Z,30.36
2022-08-30T17:03:15.626Z,30.47
2022-08-30T17:05:44.874Z,30.29
2022-08-30T17:08:12.224Z,30.34
2022-08-30T17:10:43.817Z,30.32
2022-08-30T17:13:17.139Z,30.21
2022-08-30T17:15:45.957Z,30.33
2022-08-30T17:18:13.520Z,30.35
2022-08-30T17:20:41.423Z,30.31
2022-08-30T17:23:12.021Z,30.25
2022-08-30T17:25:40.082Z,30.16
2022-08-30T17:28:08.527Z,30.12
2022-08-30T17:30:36.357Z,30.12
2022-08-30T17:33:04.629Z,30.13
2022-08-30T17:35:31.881Z,30.09
2022-08-30T17:37:59.437Z,30.06
2022-08-30T17:40:26.696Z,30.06
2022-08-30T17:42:53.908Z,30.06
2022-08-30T17:45:21.643Z,30.01
2022-08-30T17:47:49.320Z,29.97
2022-08-30T17:50:16.790Z,29.89
2022-08-30T17:52:47.117Z,29.80
2022-08-30T17:55:14.263Z,29.67
2022-08-30T17:57:42.384Z,29.59
2022-08-30T18:00:11.838Z,29.56
2022-08-30T18:02:43.266Z,29.46
2022-08-30T18:05:10.503Z,29.20
2022-08-30T18:07:37.891Z,29.27
2022-08-30T18:10:06.313Z,29.08
2022-08-30T18:15:24.034Z,29.01
2022-08-30T18:17:51.877Z,28.86
2022-08-30T18:20:19.656Z,28.78
2022-08-30T18:22:49.792Z,28.68
2022-08-30T18:25:17.574Z,28.62
2022-08-30T18:27:45.795Z,28.58
2022-08-30T18:30:31.159Z,28.51
2022-08-30T18:33:01.225Z,28.42
2022-08-30T18:35:28.699Z,28.19
2022-08-30T18:37:58.282Z,28.23
2022-08-30T18:40:26.203Z,28.28
2022-08-30T18:42:53.759Z,28.18
2022-08-30T18:45:23.059Z,28.19
2022-08-30T18:47:50.477Z,28.15
2022-08-30T18:50:19.242Z,28.18
2022-08-30T18:52:47.643Z,28.09
2022-08-30T18:55:15.580Z,28.13
2022-08-30T18:57:44.719Z,28.06
2022-08-30T19:00:14.919Z,28.00
2022-08-30T19:02:43.558Z,28.02
2022-08-30T19:05:11.561Z,27.96
2022-08-30T19:07:40.587Z,27.85
2022-08-30T19:10:08.251Z,27.77
2022-08-30T19:12:40.232Z,27.72
2022-08-30T19:15:11.718Z,27.68
2022-08-30T19:17:41.581Z,27.60
2022-08-30T19:20:10.122Z,27.62
2022-08-30T19:22:56.645Z,27.61
2022-08-30T19:25:25.624Z,27.51
2022-08-30T19:27:53.101Z,27.42
2022-08-30T19:30:24.043Z,27.30
2022-08-30T19:32:56.557Z,27.23
2022-08-30T19:35:25.181Z,27.16
2022-08-30T19:37:52.463Z,27.10
2022-08-30T19:40:20.654Z,27.09
2022-08-30T19:42:48.107Z,27.03
2022-08-30T19:45:18.112Z,27.08
2022-08-30T19:47:46.631Z,26.96
2022-08-30T19:50:14.535Z,26.88
2022-08-30T19:52:41.785Z,26.92
2022-08-30T19:55:09.770Z,26.94
2022-08-30T19:57:36.942Z,26.82
2022-08-30T20:00:11.103Z,26.84
2022-08-30T20:02:39.150Z,26.80
2022-08-30T20:05:06.913Z,26.72
2022-08-30T20:07:39.164Z,26.68
2022-08-30T20:10:11.275Z,26.66
2022-08-30T20:12:39.929Z,26.63
2022-08-30T20:15:14.741Z,26.58
2022-08-30T20:18:02.731Z,26.44
2022-08-30T20:20:30.590Z,26.53
2022-08-30T20:22:57.851Z,26.46
2022-08-30T20:24:26.633Z,29.00
2022-08-30T20:25:25.057Z,26.49
2022-08-30T20:27:52.637Z,26.33
2022-08-30T20:30:19.903Z,26.43
2022-08-30T20:32:47.181Z,26.37
2022-08-30T20:35:15.582Z,26.33
2022-08-30T20:37:43.277Z,26.35
2022-08-30T20:40:14.993Z,26.43
2022-08-30T20:42:45.550Z,26.27
2022-08-30T20:45:16.631Z,26.18
2022-08-30T20:47:44.355Z,26.14
2022-08-30T20:50:15.590Z,26.13
2022-08-30T20:52:42.843Z,26.08
2022-08-30T20:55:10.717Z,26.13
2022-08-30T20:57:38.204Z,25.81
2022-08-30T21:00:10.930Z,25.72
2022-08-30T21:02:46.374Z,25.79
2022-08-30T21:05:15.450Z,25.72
2022-08-30T21:07:43.386Z,25.69
2022-08-30T21:10:10.640Z,25.80
2022-08-30T21:12:37.898Z,25.69
2022-08-30T21:15:33.761Z,25.64
2022-08-30T21:17:55.045Z,25.77
2022-08-30T21:20:22.823Z,25.70
2022-08-30T21:22:50.022Z,25.58
2022-08-30T21:25:17.192Z,25.47
2022-08-30T21:27:44.619Z,25.32
2022-08-30T21:30:12.672Z,25.45
2022-08-30T21:32:40.034Z,25.44
2022-08-30T21:35:26.821Z,25.39
2022-08-30T21:37:54.179Z,25.47
2022-08-30T21:40:21.769Z,25.35
2022-08-30T21:42:48.956Z,25.29
2022-08-30T21:45:16.576Z,25.36
2022-08-30T21:47:44.038Z,25.36
2022-08-30T21:50:12.017Z,25.29
2022-08-30T21:52:39.194Z,25.44
2022-08-30T21:55:07.318Z,25.20
2022-08-30T21:57:34.624Z,25.15
2022-08-30T22:00:02.110Z,25.19
2022-08-30T22:02:29.463Z,25.12
2022-08-30T22:04:56.934Z,25.12
2022-08-30T22:07:24.138Z,25.05
2022-08-30T22:09:51.368Z,24.95
2022-08-30T22:12:18.809Z,24.87
2022-08-30T22:14:46.065Z,24.74
2022-08-30T22:17:13.520Z,24.86
2022-08-30T22:19:40.935Z,24.71
2022-08-30T22:22:08.082Z,24.81
2022-08-30T22:24:35.272Z,24.76
2022-08-30T22:27:03.009Z,24.79
2022-08-30T22:29:30.472Z,24.84
2022-08-30T22:31:57.748Z,24.71
2022-08-30T22:34:25.240Z,24.72
2022-08-30T22:36:52.390Z,24.67
2022-08-30T22:39:19.547Z,24.67
2022-08-30T22:41:47.358Z,24.57
2022-08-30T22:44:14.650Z,24.50
2022-08-30T22:46:41.807Z,24.43
2022-08-30T22:49:09.509Z,24.43
2022-08-30T22:51:37.001Z,24.52
2022-08-30T22:54:04.735Z,24.53
2022-08-30T22:56:32.727Z,24.72
2022-08-30T22:58:59.888Z,24.62
2022-08-30T23:01:29.143Z,24.50
2022-08-30T23:03:56.804Z,24.51
2022-08-30T23:06:24.053Z,24.52
2022-08-30T23:08:51.306Z,24.27
2022-08-30T23:11:18.793Z,24.25
2022-08-30T23:13:46.039Z,24.33
2022-08-30T23:16:13.995Z,24.37
2022-08-30T23:18:43.169Z,24.36
2022-08-30T23:21:21.430Z,24.32
2022-08-30T23:24:07.947Z,24.51
2022-08-30T23:26:54.058Z,24.38
2022-08-30T23:29:40.117Z,24.29
2022-08-30T23:32:26.006Z,24.46
2022-08-30T23:35:12.135Z,24.13
2022-08-30T23:37:57.820Z,24.30
2022-08-30T23:40:44.004Z,24.29
2022-08-30T23:43:29.729Z,24.21
2022-08-30T23:46:18.891Z,24.12
2022-08-30T23:49:05.800Z,24.20
2022-08-30T23:51:52.190Z,24.31
2022-08-30T23:54:38.223Z,24.26
2022-08-30T23:57:24.308Z,24.30
